Time;durP1;ratioP1;P1;durP2;ratioP2;P2;SDS_P1;SDS_P2;PMS_P1;PMS_P2;Temp;Humidity;BMP_temperature;BMP_pressure;BME280_temperature;BME280_humidity;BME280_pressure;Samples;Min_cycle;Max_cycle;Signal;HPM_P1;HPM_P2
2022/03/11 00:01:58;;;;;;;6.13;3.53;;;;;;;;;;5119232;27;20454;-72
2022/03/11 00:04:26;;;;;;;8.17;4.50;;;;;;;;;;5110064;28;20455;-72
2022/03/11 00:06:56;;;;;;;7.43;4.83;;;;;;;;;;5116650;27;20537;-72
2022/03/11 00:09:24;;;;;;;10.63;5.50;;;;;;;;;;5115456;27;20448;-72
2022/03/11 00:11:57;;;;;;;7.47;3.37;;;;;;;;;;5106207;28;20912;-72
2022/03/11 00:14:31;;;;;;;6.30;4.23;;;;;;;;;;5106523;28;20443;-73
2022/03/11 00:17:07;;;;;;;12.23;5.03;;;;;;;;;;5099683;28;20465;-73
2022/03/11 00:19:45;;;;;;;7.60;5.00;;;;;;;;;;5099339;28;20462;-71
2022/03/11 00:22:17;;;;;;;10.20;5.30;;;;;;;;;;5099082;28;20550;-73
2022/03/11 00:24:47;;;;;;;7.80;5.27;;;;;;;;;;5098797;28;20455;-73
2022/03/11 00:27:21;;;;;;;6.20;3.00;;;;;;;;;;5099073;28;20467;-72
2022/03/11 00:29:49;;;;;;;6.43;4.47;;;;;;;;;;5098660;28;21074;-72
2022/03/11 00:32:16;;;;;;;7.53;4.90;;;;;;;;;;5100075;28;20479;-72
2022/03/11 00:34:44;;;;;;;8.53;5.30;;;;;;;;;;5098827;28;20451;-72
2022/03/11 00:37:12;;;;;;;7.63;4.40;;;;;;;;;;5117411;27;20489;-72
2022/03/11 00:39:41;;;;;;;7.43;4.80;;;;;;;;;;5119616;27;20507;-72
2022/03/11 00:42:10;;;;;;;5.53;3.47;;;;;;;;;;5117164;27;20477;-72
2022/03/11 00:44:39;;;;;;;9.30;5.33;;;;;;;;;;5117794;27;20462;-72
2022/03/11 00:47:07;;;;;;;7.43;3.70;;;;;;;;;;5118617;28;20656;-73
2022/03/11 00:49:37;;;;;;;8.97;4.23;;;;;;;;;;5118767;28;20773;-73
2022/03/11 00:52:05;;;;;;;7.60;4.10;;;;;;;;;;5118479;28;20490;-72
2022/03/11 00:54:33;;;;;;;8.77;5.07;;;;;;;;;;5118328;27;20470;-72
2022/03/11 00:57:02;;;;;;;6.50;4.40;;;;;;;;;;5118142;27;20463;-72
2022/03/11 00:59:30;;;;;;;9.67;5.60;;;;;;;;;;5118794;27;20451;-73
2022/03/11 01:01:58;;;;;;;9.93;4.00;;;;;;;;;;5119102;27;20462;-72
2022/03/11 01:04:26;;;;;;;8.30;4.97;;;;;;;;;;5119335;27;20523;-72
2022/03/11 01:06:53;;;;;;;8.70;4.77;;;;;;;;;;5118750;27;20451;-72
2022/03/11 01:09:21;;;;;;;8.67;5.23;;;;;;;;;;5119744;27;20454;-72
2022/03/11 01:11:49;;;;;;;6.80;4.80;;;;;;;;;;5119026;27;20497;-72
2022/03/11 01:14:18;;;;;;;8.90;4.60;;;;;;;;;;5118394;27;20458;-72
2022/03/11 01:16:48;;;;;;;9.43;5.17;;;;;;;;;;5119095;27;20721;-72
2022/03/11 01:19:15;;;;;;;6.70;4.33;;;;;;;;;;5118038;27;20462;-72
2022/03/11 01:21:43;;;;;;;7.53;4.60;;;;;;;;;;5109278;28;20476;-72
2022/03/11 01:24:13;;;;;;;7.83;3.97;;;;;;;;;;5112729;28;20470;-72
2022/03/11 01:26:41;;;;;;;8.20;4.60;;;;;;;;;;5118522;27;20629;-72
2022/03/11 01:29:08;;;;;;;6.87;3.33;;;;;;;;;;5118473;27;20459;-72
2022/03/11 01:31:37;;;;;;;8.63;4.63;;;;;;;;;;5116667;27;20491;-72
2022/03/11 01:34:05;;;;;;;8.17;4.33;;;;;;;;;;5118824;27;20466;-72
2022/03/11 01:36:33;;;;;;;9.63;4.00;;;;;;;;;;5117451;28;20447;-72
2022/03/11 01:39:00;;;;;;;7.60;5.13;;;;;;;;;;5118340;27;20462;-72
2022/03/11 01:41:28;;;;;;;6.43;4.13;;;;;;;;;;5118233;27;20458;-72
2022/03/11 01:43:59;;;;;;;8.10;3.80;;;;;;;;;;5117970;27;20458;-72
2022/03/11 01:46:28;;;;;;;11.00;5.00;;;;;;;;;;5118192;28;20454;-72
2022/03/11 01:48:57;;;;;;;9.90;5.20;;;;;;;;;;5117428;27;20459;-72
2022/03/11 01:51:25;;;;;;;8.03;4.67;;;;;;;;;;5117744;27;20490;-73
2022/03/11 01:53:56;;;;;;;7.47;4.60;;;;;;;;;;5117365;28;20469;-73
2022/03/11 01:56:24;;;;;;;8.43;4.83;;;;;;;;;;5118450;28;20457;-73
2022/03/11 01:58:52;;;;;;;8.87;4.10;;;;;;;;;;5118044;27;20861;-73
2022/03/11 02:01:21;;;;;;;8.10;5.00;;;;;;;;;;5118232;28;20564;-73
2022/03/11 02:03:49;;;;;;;9.33;4.33;;;;;;;;;;5117544;28;20508;-73
2022/03/11 02:06:19;;;;;;;11.53;5.73;;;;;;;;;;5117474;27;20447;-73
2022/03/11 02:08:47;;;;;;;10.60;4.50;;;;;;;;;;5117913;27;20454;-73
2022/03/11 02:11:15;;;;;;;7.80;4.60;;;;;;;;;;5117453;27;21034;-73
2022/03/11 02:13:44;;;;;;;8.73;5.03;;;;;;;;;;5117554;27;20561;-73
2022/03/11 02:16:12;;;;;;;8.80;5.13;;;;;;;;;;5117789;28;20451;-73
2022/03/11 02:18:40;;;;;;;9.30;5.50;;;;;;;;;;5117549;27;20501;-73
2022/03/11 02:21:09;;;;;;;10.70;4.80;;;;;;;;;;5117506;28;20855;-73
2022/03/11 02:23:41;;;;;;;9.33;5.03;;;;;;;;;;5117884;27;20462;-73
2022/03/11 02:26:09;;;;;;;10.40;4.83;;;;;;;;;;5110919;27;20469;-73
2022/03/11 02:28:37;;;;;;;6.30;4.20;;;;;;;;;;5117125;28;20471;-73
2022/03/11 02:31:05;;;;;;;9.00;5.40;;;;;;;;;;5115848;28;20517;-73
2022/03/11 02:33:33;;;;;;;8.13;4.77;;;;;;;;;;5097259;28;20520;-73
2022/03/11 02:36:04;;;;;;;7.10;4.83;;;;;;;;;;5096921;28;20513;-73
2022/03/11 02:38:35;;;;;;;8.20;5.00;;;;;;;;;;5097054;28;20459;-73
2022/03/11 02:41:04;;;;;;;11.20;6.07;;;;;;;;;;5097291;28;20454;-73
2022/03/11 02:43:32;;;;;;;7.57;4.53;;;;;;;;;;5114423;28;20455;-73
2022/03/11 02:46:00;;;;;;;8.53;5.10;;;;;;;;;;5117315;28;20519;-73
2022/03/11 02:48:28;;;;;;;10.10;5.40;;;;;;;;;;5116056;28;20443;-73
2022/03/11 02:50:55;;;;;;;10.47;5.80;;;;;;;;;;5111238;28;20447;-73
2022/03/11 02:53:23;;;;;;;9.47;5.17;;;;;;;;;;5117264;28;20493;-73
2022/03/11 02:55:50;;;;;;;8.00;4.37;;;;;;;;;;5117818;28;20881;-73
2022/03/11 02:58:19;;;;;;;9.27;4.73;;;;;;;;;;5117230;28;20458;-73
2022/03/11 03:00:50;;;;;;;8.50;5.20;;;;;;;;;;5117354;28;20835;-73
2022/03/11 03:03:18;;;;;;;8.67;5.67;;;;;;;;;;5117023;28;20474;-73
2022/03/11 03:05:59;;;;;;;;;;;;;;;;;;;;;
2022/03/11 03:08:27;;;;;;;8.33;6.13;;;;;;;;;;5121071;27;20551;-73
2022/03/11 03:10:55;;;;;;;8.03;4.90;;;;;;;;;;5118174;27;20518;-73
2022/03/11 03:13:24;;;;;;;12.33;5.03;;;;;;;;;;5100601;28;20918;-73
2022/03/11 03:15:52;;;;;;;8.40;5.20;;;;;;;;;;5100965;28;20455;-72
2022/03/11 03:18:20;;;;;;;12.03;5.70;;;;;;;;;;5100765;28;20474;-72
2022/03/11 03:20:50;;;;;;;7.80;4.87;;;;;;;;;;5100364;28;20454;-73
2022/03/11 03:23:18;;;;;;;9.93;5.00;;;;;;;;;;5100395;28;20475;-73
2022/03/11 03:25:46;;;;;;;5.10;3.80;;;;;;;;;;5100637;28;20470;-73
2022/03/11 03:28:14;;;;;;;9.30;6.67;;;;;;;;;;5100882;28;20859;-72
2022/03/11 03:30:43;;;;;;;10.93;5.53;;;;;;;;;;5118012;27;20462;-72
2022/03/11 03:33:13;;;;;;;8.87;5.10;;;;;;;;;;5100369;28;20930;-74
2022/03/11 03:35:40;;;;;;;11.33;5.90;;;;;;;;;;5104001;28;20750;-73
2022/03/11 03:38:08;;;;;;;10.33;3.17;;;;;;;;;;5118504;27;20454;-73
2022/03/11 03:40:36;;;;;;;9.90;5.30;;;;;;;;;;5119960;27;20466;-73
2022/03/11 03:43:04;;;;;;;7.90;5.70;;;;;;;;;;5120930;27;20863;-73
2022/03/11 03:45:34;;;;;;;6.93;4.80;;;;;;;;;;5120044;27;20874;-73
2022/03/11 03:48:03;;;;;;;9.70;5.60;;;;;;;;;;5121278;27;20470;-73
2022/03/11 03:50:32;;;;;;;7.93;5.00;;;;;;;;;;5120402;27;20841;-73
2022/03/11 03:53:00;;;;;;;13.13;5.57;;;;;;;;;;5120512;27;20490;-73
2022/03/11 03:55:27;;;;;;;10.47;4.50;;;;;;;;;;5120666;27;20885;-72
2022/03/11 03:57:55;;;;;;;9.30;6.03;;;;;;;;;;5118126;27;20541;-72
2022/03/11 04:00:23;;;;;;;11.03;4.80;;;;;;;;;;5117982;27;20451;-72
2022/03/11 04:02:51;;;;;;;8.20;4.67;;;;;;;;;;5120281;27;20539;-73
2022/03/11 04:05:21;;;;;;;8.00;4.67;;;;;;;;;;5119805;27;20458;-72
2022/03/11 04:07:49;;;;;;;7.83;5.00;;;;;;;;;;5118078;27;20925;-72
2022/03/11 04:10:18;;;;;;;9.40;4.67;;;;;;;;;;5119693;27;20488;-73
2022/03/11 04:12:46;;;;;;;7.33;5.00;;;;;;;;;;5119869;27;20459;-72
2022/03/11 04:15:14;;;;;;;10.60;5.93;;;;;;;;;;5119166;27;20827;-72
2022/03/11 04:17:52;;;;;;;8.17;5.00;;;;;;;;;;5112250;28;20481;-73
2022/03/11 04:20:26;;;;;;;10.33;5.80;;;;;;;;;;5099198;28;20707;-72
2022/03/11 04:22:55;;;;;;;5.43;2.80;;;;;;;;;;5099294;28;20594;-73
2022/03/11 04:25:25;;;;;;;8.43;5.23;;;;;;;;;;5099147;28;20444;-73
2022/03/11 04:28:00;;;;;;;10.20;5.03;;;;;;;;;;5098391;28;20510;-73
2022/03/11 04:30:28;;;;;;;11.13;6.50;;;;;;;;;;5099341;28;20566;-73
2022/03/11 04:32:56;;;;;;;9.10;5.73;;;;;;;;;;5099363;28;20463;-72
2022/03/11 04:35:25;;;;;;;10.20;6.00;;;;;;;;;;5099630;28;20778;-72
2022/03/11 04:37:53;;;;;;;9.73;4.87;;;;;;;;;;5098983;28;20837;-72
2022/03/11 04:40:21;;;;;;;10.10;6.33;;;;;;;;;;5098287;28;20929;-73
2022/03/11 04:42:49;;;;;;;9.27;4.80;;;;;;;;;;5106556;28;20489;-73
2022/03/11 04:45:17;;;;;;;8.93;5.03;;;;;;;;;;5119494;27;20879;-73
2022/03/11 04:47:46;;;;;;;7.67;3.80;;;;;;;;;;5117952;28;20716;-72
2022/03/11 04:50:13;;;;;;;6.43;4.60;;;;;;;;;;5118471;27;20742;-72
2022/03/11 04:52:42;;;;;;;14.20;4.97;;;;;;;;;;5102530;28;20494;-72
2022/03/11 04:55:10;;;;;;;5.63;3.00;;;;;;;;;;5098254;28;20459;-72
2022/03/11 04:57:44;;;;;;;9.17;5.33;;;;;;;;;;5098455;28;20471;-73
2022/03/11 05:00:13;;;;;;;15.67;6.13;;;;;;;;;;5097760;28;20463;-73
2022/03/11 05:02:45;;;;;;;7.90;4.57;;;;;;;;;;5098116;28;20479;-72
2022/03/11 05:05:13;;;;;;;11.23;5.40;;;;;;;;;;5098880;28;20459;-72
2022/03/11 05:07:41;;;;;;;10.93;6.33;;;;;;;;;;5097949;28;20447;-73
2022/03/11 05:10:13;;;;;;;6.53;4.67;;;;;;;;;;5098175;28;20471;-72
2022/03/11 05:12:41;;;;;;;12.70;5.20;;;;;;;;;;5097740;28;20471;-73
2022/03/11 05:15:10;;;;;;;13.93;5.53;;;;;;;;;;5097861;28;20470;-72
2022/03/11 05:17:38;;;;;;;12.47;6.63;;;;;;;;;;5097059;28;20911;-73
2022/03/11 05:20:06;;;;;;;11.77;6.03;;;;;;;;;;5097706;28;20486;-72
2022/03/11 05:22:34;;;;;;;9.37;5.60;;;;;;;;;;5098241;28;20508;-73
2022/03/11 05:25:16;;;;;;;8.37;5.77;;;;;;;;;;5097445;28;20463;-73
2022/03/11 05:27:45;;;;;;;9.93;5.60;;;;;;;;;;5096948;28;20443;-72
2022/03/11 05:30:14;;;;;;;7.47;5.47;;;;;;;;;;5097170;28;20462;-72
2022/03/11 05:32:42;;;;;;;11.20;5.10;;;;;;;;;;5098254;28;20529;-72
2022/03/11 05:35:13;;;;;;;8.93;5.77;;;;;;;;;;5092499;28;20471;-72
2022/03/11 05:37:43;;;;;;;7.73;5.60;;;;;;;;;;5097202;28;20554;-72
2022/03/11 05:40:11;;;;;;;14.60;6.00;;;;;;;;;;5096945;28;20456;-72
2022/03/11 05:42:43;;;;;;;12.80;4.93;;;;;;;;;;5097206;28;21087;-72
2022/03/11 05:45:12;;;;;;;12.63;6.97;;;;;;;;;;5097844;28;20465;-72
2022/03/11 05:47:40;;;;;;;10.97;6.00;;;;;;;;;;5117122;27;20496;-72
2022/03/11 05:50:09;;;;;;;7.50;4.80;;;;;;;;;;5117547;28;20451;-72
2022/03/11 05:52:37;;;;;;;7.67;5.60;;;;;;;;;;5114378;27;20597;-72
2022/03/11 05:55:07;;;;;;;10.40;6.50;;;;;;;;;;5115231;28;20459;-72
2022/03/11 05:57:34;;;;;;;11.60;6.10;;;;;;;;;;5117596;27;20524;-72
2022/03/11 06:00:02;;;;;;;10.90;5.93;;;;;;;;;;5104137;28;20786;-73
2022/03/11 06:02:32;;;;;;;4.90;3.97;;;;;;;;;;5110798;28;20535;-72
2022/03/11 06:05:00;;;;;;;11.20;5.33;;;;;;;;;;5115037;28;20527;-72
2022/03/11 06:07:28;;;;;;;12.30;5.30;;;;;;;;;;5112943;27;20752;-73
2022/03/11 06:10:09;;;;;;;9.23;5.40;;;;;;;;;;5116671;27;20526;-72
2022/03/11 06:12:48;;;;;;;6.60;4.13;;;;;;;;;;5113957;28;20446;-72
2022/03/11 06:15:16;;;;;;;13.73;6.33;;;;;;;;;;5115610;28;20454;-73
2022/03/11 06:17:54;;;;;;;12.10;5.37;;;;;;;;;;5107929;28;20459;-72
2022/03/11 06:20:22;;;;;;;9.97;5.17;;;;;;;;;;5096501;27;20468;-72
2022/03/11 06:22:50;;;;;;;9.97;5.43;;;;;;;;;;5115230;27;20482;-71
2022/03/11 06:25:20;;;;;;;8.97;5.00;;;;;;;;;;5116008;28;20458;-73
2022/03/11 06:27:47;;;;;;;8.90;5.17;;;;;;;;;;5113829;28;20504;-73
2022/03/11 06:30:16;;;;;;;11.60;6.50;;;;;;;;;;5114627;28;20469;-73
2022/03/11 06:32:44;;;;;;;10.87;5.87;;;;;;;;;;5114810;28;20454;-73
2022/03/11 06:35:14;;;;;;;11.73;5.67;;;;;;;;;;5114223;28;20462;-73
2022/03/11 06:37:43;;;;;;;8.93;4.97;;;;;;;;;;5114326;28;20557;-72
2022/03/11 06:40:20;;;;;;;8.13;4.50;;;;;;;;;;5113681;28;21029;-71
2022/03/11 06:42:51;;;;;;;11.43;5.50;;;;;;;;;;5113952;28;20486;-73
2022/03/11 06:45:19;;;;;;;10.17;5.27;;;;;;;;;;5103765;28;20447;-73
2022/03/11 06:47:49;;;;;;;11.20;3.70;;;;;;;;;;5109311;28;20477;-72
2022/03/11 06:50:20;;;;;;;9.37;5.10;;;;;;;;;;5094059;28;20460;-72
2022/03/11 06:52:47;;;;;;;9.80;5.50;;;;;;;;;;5113363;28;20462;-72
2022/03/11 06:55:18;;;;;;;8.07;4.73;;;;;;;;;;5112957;28;20455;-72
2022/03/11 06:57:56;;;;;;;9.00;5.07;;;;;;;;;;5113259;28;20510;-72
2022/03/11 07:00:27;;;;;;;8.93;5.30;;;;;;;;;;5114783;28;20886;-72
2022/03/11 07:02:55;;;;;;;16.40;4.70;;;;;;;;;;5114042;28;20555;-72
2022/03/11 07:05:34;;;;;;;8.10;5.10;;;;;;;;;;5113319;28;20454;-72
2022/03/11 07:08:02;;;;;;;13.53;6.43;;;;;;;;;;5113901;28;20474;-72
2022/03/11 07:10:30;;;;;;;10.47;5.57;;;;;;;;;;5113069;28;20471;-72
2022/03/11 07:12:59;;;;;;;10.50;6.40;;;;;;;;;;5113459;28;21075;-72
2022/03/11 07:15:27;;;;;;;13.20;6.13;;;;;;;;;;5109530;28;21061;-73
2022/03/11 07:17:55;;;;;;;10.17;4.87;;;;;;;;;;5114153;28;20446;-72
2022/03/11 07:20:25;;;;;;;6.90;4.63;;;;;;;;;;5114755;28;20466;-73
2022/03/11 07:22:52;;;;;;;12.47;4.80;;;;;;;;;;5114588;28;20480;-72
2022/03/11 07:25:20;;;;;;;10.27;5.40;;;;;;;;;;5112735;28;20451;-72
2022/03/11 07:27:49;;;;;;;6.80;4.40;;;;;;;;;;5115163;28;20459;-73
2022/03/11 07:30:18;;;;;;;9.13;5.73;;;;;;;;;;5114920;28;20515;-73
2022/03/11 07:32:50;;;;;;;8.60;5.47;;;;;;;;;;5114363;28;20455;-73
2022/03/11 07:35:18;;;;;;;15.30;5.60;;;;;;;;;;5114809;28;20470;-73
2022/03/11 07:37:47;;;;;;;6.67;4.33;;;;;;;;;;5114304;28;20882;-73
2022/03/11 07:40:21;;;;;;;8.77;5.00;;;;;;;;;;5108102;28;20448;-72
2022/03/11 07:42:49;;;;;;;11.20;6.50;;;;;;;;;;5096182;28;20451;-73
2022/03/11 07:45:17;;;;;;;11.40;5.60;;;;;;;;;;5113550;28;20466;-73
2022/03/11 07:47:49;;;;;;;12.00;5.90;;;;;;;;;;5106617;28;20457;-72
2022/03/11 07:50:17;;;;;;;8.60;6.10;;;;;;;;;;5113536;28;20473;-72
2022/03/11 07:53:00;;;;;;;12.10;5.80;;;;;;;;;;5117401;27;20466;-71
2022/03/11 07:55:31;;;;;;;14.40;7.00;;;;;;;;;;5117459;27;20557;-73
2022/03/11 07:57:59;;;;;;;8.60;4.27;;;;;;;;;;5117941;27;20458;-72
2022/03/11 08:00:29;;;;;;;8.73;4.70;;;;;;;;;;5115369;27;20478;-73
2022/03/11 08:02:57;;;;;;;9.97;6.10;;;;;;;;;;5105029;28;20601;-72
2022/03/11 08:05:26;;;;;;;13.53;6.80;;;;;;;;;;5104805;27;20459;-72
2022/03/11 08:08:07;;;;;;;6.20;3.43;;;;;;;;;;5096711;28;20444;-72
2022/03/11 08:10:37;;;;;;;12.03;5.73;;;;;;;;;;5102646;28;20875;-73
2022/03/11 08:13:11;;;;;;;9.30;5.73;;;;;;;;;;5110171;27;20455;-72
2022/03/11 08:15:40;;;;;;;9.87;5.47;;;;;;;;;;5107767;28;20467;-73
2022/03/11 08:18:15;;;;;;;12.93;5.47;;;;;;;;;;5098978;28;20467;-73
2022/03/11 08:21:16;;;;;;;15.83;6.37;;;;;;;;;;5110656;28;20497;-73
2022/03/11 08:23:44;;;;;;;14.57;6.80;;;;;;;;;;5116470;27;20559;-73
2022/03/11 08:26:14;;;;;;;8.67;4.80;;;;;;;;;;5093263;28;20471;-73
2022/03/11 08:28:43;;;;;;;7.90;5.17;;;;;;;;;;5093701;28;20886;-73
2022/03/11 08:31:16;;;;;;;9.40;7.47;;;;;;;;;;5076467;28;20445;-74
2022/03/11 08:33:44;;;;;;;12.40;5.50;;;;;;;;;;5076928;28;20443;-73
2022/03/11 08:36:13;;;;;;;10.20;5.03;;;;;;;;;;5077627;28;20849;-73
2022/03/11 08:38:44;;;;;;;10.60;4.90;;;;;;;;;;5086954;28;20447;-73
2022/03/11 08:41:16;;;;;;;15.93;8.20;;;;;;;;;;5076254;28;20559;-72
2022/03/11 08:43:55;;;;;;;8.47;5.80;;;;;;;;;;5088705;28;20561;-71
2022/03/11 08:46:24;;;;;;;19.50;7.67;;;;;;;;;;5082821;28;20456;-72
2022/03/11 08:48:53;;;;;;;8.13;4.87;;;;;;;;;;5096277;28;20807;-72
2022/03/11 08:51:27;;;;;;;6.90;4.27;;;;;;;;;;5094655;28;20467;-73
2022/03/11 08:53:54;;;;;;;7.50;3.90;;;;;;;;;;5083281;28;20444;-73
2022/03/11 08:56:25;;;;;;;12.00;5.53;;;;;;;;;;5095219;28;20542;-72
2022/03/11 08:58:55;;;;;;;10.80;5.80;;;;;;;;;;5095335;28;20517;-71
2022/03/11 09:01:31;;;;;;;7.83;5.27;;;;;;;;;;5095529;28;20529;-72
2022/03/11 09:03:59;;;;;;;8.23;5.00;;;;;;;;;;5093512;28;21111;-72
2022/03/11 09:06:36;;;;;;;11.13;4.90;;;;;;;;;;5094894;28;20447;-72
2022/03/11 09:09:08;;;;;;;9.93;5.40;;;;;;;;;;5096284;28;20724;-72
2022/03/11 09:11:36;;;;;;;10.33;4.87;;;;;;;;;;5080596;28;20465;-72
2022/03/11 09:14:09;;;;;;;12.40;5.60;;;;;;;;;;5075649;28;20468;-73
2022/03/11 09:16:37;;;;;;;6.73;4.23;;;;;;;;;;5078593;28;20451;-72
2022/03/11 09:19:06;;;;;;;10.50;6.23;;;;;;;;;;5093621;28;20970;-72
2022/03/11 09:21:34;;;;;;;9.00;5.03;;;;;;;;;;5095487;28;20513;-72
2022/03/11 09:24:03;;;;;;;10.73;5.30;;;;;;;;;;5091596;28;20478;-71
2022/03/11 09:26:32;;;;;;;12.83;7.03;;;;;;;;;;5086281;28;20476;-71
2022/03/11 09:29:03;;;;;;;6.97;5.07;;;;;;;;;;5075493;28;20545;-72
2022/03/11 09:34:51;;;;;;;8.63;5.13;;;;;;;;;;5046877;28;20451;-71
2022/03/11 09:40:31;;;;;;;12.97;6.20;;;;;;;;;;5095745;28;20440;-71
2022/03/11 09:43:07;;;;;;;9.90;5.40;;;;;;;;;;5095272;28;20482;-70
2022/03/11 09:45:38;;;;;;;9.40;5.50;;;;;;;;;;5095603;28;20525;-71
2022/03/11 09:48:10;;;;;;;11.70;6.07;;;;;;;;;;5093678;28;21095;-71
2022/03/11 09:50:39;;;;;;;8.67;4.80;;;;;;;;;;5094923;28;20440;-72
2022/03/11 09:53:07;;;;;;;5.63;3.73;;;;;;;;;;5092846;28;20532;-72
2022/03/11 09:55:36;;;;;;;8.13;4.70;;;;;;;;;;5093864;28;20448;-71
2022/03/11 09:58:05;;;;;;;6.93;4.70;;;;;;;;;;5092961;28;20495;-71
2022/03/11 10:00:33;;;;;;;8.07;4.23;;;;;;;;;;5076084;28;20461;-71
2022/03/11 10:03:01;;;;;;;11.23;5.20;;;;;;;;;;5073795;28;20486;-71
2022/03/11 10:05:44;;;;;;;12.13;5.53;;;;;;;;;;5076986;28;20488;-70
2022/03/11 10:08:16;;;;;;;14.60;5.80;;;;;;;;;;5074247;28;20781;-71
2022/03/11 10:10:47;;;;;;;7.43;4.50;;;;;;;;;;5074321;28;20483;-71
2022/03/11 10:13:15;;;;;;;9.10;5.43;;;;;;;;;;5078578;28;20467;-71
2022/03/11 10:15:44;;;;;;;7.80;3.90;;;;;;;;;;5093770;28;20954;-72
2022/03/11 10:18:15;;;;;;;8.20;5.70;;;;;;;;;;5093588;28;20501;-71
2022/03/11 10:21:01;;;;;;;8.90;4.77;;;;;;;;;;5093306;28;20428;-71
2022/03/11 10:24:03;;;;;;;14.83;5.10;;;;;;;;;;5084530;28;20459;-71
2022/03/11 10:26:55;;;;;;;7.83;5.30;;;;;;;;;;5078398;28;20487;-71
2022/03/11 10:29:32;;;;;;;7.10;5.03;;;;;;;;;;5088260;28;20473;-71
2022/03/11 10:32:10;;;;;;;11.13;5.57;;;;;;;;;;5085650;28;20546;-70
2022/03/11 10:34:49;;;;;;;6.33;4.87;;;;;;;;;;5095884;28;20455;-70
2022/03/11 10:37:27;;;;;;;9.67;5.80;;;;;;;;;;5092321;28;20467;-70
2022/03/11 10:40:15;;;;;;;10.07;4.33;;;;;;;;;;5089477;28;20535;-70
2022/03/11 10:42:45;;;;;;;13.83;5.00;;;;;;;;;;5094303;28;20888;-71
2022/03/11 10:45:19;;;;;;;7.93;5.60;;;;;;;;;;5085457;28;20590;-69
2022/03/11 10:48:13;;;;;;;9.67;5.57;;;;;;;;;;5085076;28;20456;-70
2022/03/11 10:50:52;;;;;;;8.30;4.50;;;;;;;;;;5090819;28;20463;-71
2022/03/11 10:53:20;;;;;;;8.30;4.93;;;;;;;;;;5086889;28;20476;-71
2022/03/11 10:55:49;;;;;;;11.87;5.40;;;;;;;;;;5095621;28;20466;-72
2022/03/11 10:58:48;;;;;;;10.13;3.67;;;;;;;;;;5093553;28;20504;-71
2022/03/11 11:01:17;;;;;;;9.37;5.63;;;;;;;;;;5094574;28;21030;-71
2022/03/11 11:03:46;;;;;;;11.63;5.67;;;;;;;;;;5094469;28;20512;-71
2022/03/11 11:06:19;;;;;;;8.83;5.30;;;;;;;;;;5093615;28;20592;-71
2022/03/11 11:08:47;;;;;;;5.53;4.30;;;;;;;;;;5084658;28;20464;-71
2022/03/11 11:11:16;;;;;;;37.23;4.40;;;;;;;;;;5086773;28;20456;-72
2022/03/11 11:13:46;;;;;;;11.17;5.90;;;;;;;;;;5087172;28;20448;-72
2022/03/11 11:16:14;;;;;;;10.00;5.10;;;;;;;;;;5080137;28;20471;-71
2022/03/11 11:18:48;;;;;;;5.33;3.50;;;;;;;;;;5083212;28;20456;-72
2022/03/11 11:21:20;;;;;;;8.63;5.57;;;;;;;;;;5092963;28;20546;-72
2022/03/11 11:23:50;;;;;;;9.10;4.30;;;;;;;;;;5073608;28;20462;-71
2022/03/11 11:26:18;;;;;;;7.50;4.60;;;;;;;;;;5076694;28;20499;-70
2022/03/11 11:31:49;;;;;;;11.50;5.77;;;;;;;;;;5094157;28;20459;-70
2022/03/11 11:34:30;;;;;;;7.50;4.50;;;;;;;;;;5092267;28;20619;-71
2022/03/11 11:36:58;;;;;;;9.50;5.27;;;;;;;;;;5076021;28;21087;-71
2022/03/11 11:39:27;;;;;;;7.83;4.50;;;;;;;;;;5085096;28;20464;-71
2022/03/11 11:41:57;;;;;;;6.57;4.60;;;;;;;;;;5096858;28;20463;-71
2022/03/11 11:44:37;;;;;;;8.27;5.57;;;;;;;;;;5089198;28;20537;-71
2022/03/11 11:47:15;;;;;;;7.13;5.30;;;;;;;;;;5086080;28;20451;-70
2022/03/11 11:50:01;;;;;;;8.33;5.27;;;;;;;;;;5086059;28;20461;-70
2022/03/11 11:52:36;;;;;;;9.13;4.20;;;;;;;;;;5080120;28;20505;-70
2022/03/11 11:55:17;;;;;;;8.70;5.50;;;;;;;;;;5085678;28;20460;-72
2022/03/11 11:57:48;;;;;;;11.60;4.80;;;;;;;;;;5086382;28;20455;-71
2022/03/11 12:00:39;;;;;;;7.80;3.83;;;;;;;;;;5093372;28;21110;-72
2022/03/11 12:06:39;;;;;;;9.37;5.17;;;;;;;;;;5084717;28;20483;-71
2022/03/11 12:09:33;;;;;;;8.17;4.90;;;;;;;;;;5077048;28;21024;-71
2022/03/11 12:12:11;;;;;;;12.00;5.00;;;;;;;;;;5089321;28;20498;-72
2022/03/11 12:14:54;;;;;;;8.13;5.30;;;;;;;;;;5075843;28;20452;-72
2022/03/11 12:17:40;;;;;;;7.50;4.23;;;;;;;;;;5087661;28;20449;-70
2022/03/11 12:23:44;;;;;;;11.10;6.70;;;;;;;;;;4998626;28;20443;-74
2022/03/11 12:26:32;;;;;;;8.10;4.53;;;;;;;;;;5012002;28;20483;-72
2022/03/11 12:29:03;;;;;;;9.97;4.00;;;;;;;;;;5062151;28;20822;-70
2022/03/11 12:31:32;;;;;;;8.27;4.60;;;;;;;;;;5090681;28;20482;-73
2022/03/11 12:34:04;;;;;;;9.20;4.80;;;;;;;;;;5091575;28;20842;-71
2022/03/11 12:36:35;;;;;;;12.17;7.40;;;;;;;;;;5085828;28;20486;-71
2022/03/11 12:39:09;;;;;;;7.33;4.63;;;;;;;;;;5089809;28;20520;-72
2022/03/11 12:41:37;;;;;;;9.30;5.40;;;;;;;;;;5077951;28;20558;-71
2022/03/11 12:44:15;;;;;;;10.63;5.30;;;;;;;;;;5094819;28;20595;-72
2022/03/11 12:46:47;;;;;;;6.83;3.80;;;;;;;;;;5094454;28;20946;-71
2022/03/11 12:49:37;;;;;;;;;;;;;;;;;;;;;
2022/03/11 12:58:19;;;;;;;7.40;4.50;;;;;;;;;;5074801;28;20533;-70
2022/03/11 13:03:53;;;;;;;8.40;4.20;;;;;;;;;;5076143;28;20467;-71
2022/03/11 13:06:21;;;;;;;8.33;5.10;;;;;;;;;;5092251;28;20487;-71
2022/03/11 13:08:49;;;;;;;11.53;4.80;;;;;;;;;;5088219;28;20455;-70
2022/03/11 13:11:18;;;;;;;11.27;5.70;;;;;;;;;;5075096;28;20468;-70
2022/03/11 13:13:54;;;;;;;8.20;4.90;;;;;;;;;;5074785;28;20898;-72
2022/03/11 13:16:41;;;;;;;10.23;5.30;;;;;;;;;;5089784;28;20466;-73
2022/03/11 13:19:13;;;;;;;8.30;4.50;;;;;;;;;;5093813;28;20451;-73
2022/03/11 13:21:48;;;;;;;6.90;4.00;;;;;;;;;;5095810;28;20460;-72
2022/03/11 13:24:27;;;;;;;5.70;3.90;;;;;;;;;;5093878;28;20900;-74
2022/03/11 13:27:08;;;;;;;6.00;4.07;;;;;;;;;;5077465;28;20480;-72
2022/03/11 13:29:50;;;;;;;6.80;4.20;;;;;;;;;;5075433;28;20492;-72
2022/03/11 13:32:28;;;;;;;12.60;4.93;;;;;;;;;;5075376;28;20460;-72
2022/03/11 13:35:27;;;;;;;16.37;5.80;;;;;;;;;;5075335;28;20818;-72
2022/03/11 13:38:07;;;;;;;6.70;3.20;;;;;;;;;;5073740;28;20468;-72
2022/03/11 13:40:37;;;;;;;14.53;4.53;;;;;;;;;;5075595;28;20468;-73
2022/03/11 13:43:21;;;;;;;14.33;4.43;;;;;;;;;;5078027;28;20467;-72
2022/03/11 13:45:56;;;;;;;7.20;5.17;;;;;;;;;;5074065;28;20520;-72
2022/03/11 13:48:31;;;;;;;5.93;3.73;;;;;;;;;;5088564;28;20525;-71
2022/03/11 13:51:28;;;;;;;7.00;4.30;;;;;;;;;;5095190;28;20473;-73
2022/03/11 13:54:02;;;;;;;9.43;4.37;;;;;;;;;;5097350;28;20738;-74
2022/03/11 13:56:43;;;;;;;7.37;5.50;;;;;;;;;;5095837;28;20839;-73
2022/03/11 13:59:14;;;;;;;11.90;5.60;;;;;;;;;;5094261;28;20779;-73
2022/03/11 14:02:17;;;;;;;8.87;4.77;;;;;;;;;;5094938;28;20446;-73
2022/03/11 14:05:08;;;;;;;6.93;4.20;;;;;;;;;;5087566;28;20543;-73
2022/03/11 14:07:39;;;;;;;10.80;4.43;;;;;;;;;;5082972;28;20534;-71
2022/03/11 14:10:16;;;;;;;6.93;4.37;;;;;;;;;;5073771;28;20546;-73
2022/03/11 14:12:47;;;;;;;6.60;5.00;;;;;;;;;;5084541;28;20464;-74
2022/03/11 14:15:20;;;;;;;10.77;3.80;;;;;;;;;;5078306;28;20447;-72
2022/03/11 14:17:50;;;;;;;8.37;4.30;;;;;;;;;;5074659;28;20467;-73
2022/03/11 14:20:24;;;;;;;6.13;3.17;;;;;;;;;;5078379;28;20540;-73
2022/03/11 14:22:53;;;;;;;8.33;4.80;;;;;;;;;;5080443;28;20500;-73
2022/03/11 14:25:23;;;;;;;11.70;5.43;;;;;;;;;;5091758;28;20744;-72
2022/03/11 14:27:51;;;;;;;7.30;4.80;;;;;;;;;;5085581;28;20470;-73
2022/03/11 14:30:33;;;;;;;8.90;5.20;;;;;;;;;;5093104;28;20474;-73
2022/03/11 14:33:07;;;;;;;6.70;4.67;;;;;;;;;;5077575;28;20464;-72
2022/03/11 14:35:40;;;;;;;7.93;4.50;;;;;;;;;;5093765;28;20463;-70
2022/03/11 14:38:11;;;;;;;7.80;4.80;;;;;;;;;;5083572;28;20452;-73
2022/03/11 14:40:45;;;;;;;9.20;5.37;;;;;;;;;;5084196;28;20466;-72
2022/03/11 14:43:16;;;;;;;9.27;4.10;;;;;;;;;;5093059;28;20478;-72
2022/03/11 14:45:45;;;;;;;10.03;4.20;;;;;;;;;;5091411;28;20487;-72
2022/03/11 14:48:13;;;;;;;5.07;3.40;;;;;;;;;;5093768;28;20463;-72
2022/03/11 14:50:43;;;;;;;7.70;4.03;;;;;;;;;;5091153;28;20456;-72
2022/03/11 14:53:17;;;;;;;11.43;4.07;;;;;;;;;;5094882;28;20443;-72
2022/03/11 14:55:52;;;;;;;7.67;4.67;;;;;;;;;;5083419;28;20476;-71
2022/03/11 14:58:30;;;;;;;8.47;3.73;;;;;;;;;;5079559;28;20564;-71
2022/03/11 15:01:01;;;;;;;4.57;3.97;;;;;;;;;;5090899;28;20480;-71
2022/03/11 15:03:35;;;;;;;10.40;4.80;;;;;;;;;;5077168;28;20448;-72
2022/03/11 15:06:28;;;;;;;;;;;;;;;;;;;;;
2022/03/11 15:08:57;;;;;;;7.60;3.57;;;;;;;;;;5080546;28;20467;-73
2022/03/11 15:11:27;;;;;;;11.70;4.33;;;;;;;;;;5076532;28;20759;-71
2022/03/11 15:14:16;;;;;;;7.80;4.17;;;;;;;;;;5081643;28;20443;-71
2022/03/11 15:16:56;;;;;;;6.33;3.10;;;;;;;;;;5088295;28;20954;-73
2022/03/11 15:19:49;;;;;;;9.43;4.50;;;;;;;;;;5086460;28;20466;-72
2022/03/11 15:22:18;;;;;;;6.65;3.70;;;;;;;;;;5098027;28;21120;-73
2022/03/11 15:24:48;;;;;;;8.87;3.90;;;;;;;;;;5101832;28;20201;-73
2022/03/11 15:27:26;;;;;;;7.87;4.60;;;;;;;;;;5096825;28;20484;-73
2022/03/11 15:30:09;;;;;;;5.77;3.80;;;;;;;;;;5095619;28;20471;-71
2022/03/11 15:32:39;;;;;;;7.53;3.57;;;;;;;;;;5096787;28;20440;-72
2022/03/11 15:37:56;;;;;;;7.70;4.47;;;;;;;;;;5076266;28;20439;-72